Time;durP1;ratioP1;P1;durP2;ratioP2;P2;SDS_P1;SDS_P2;PMS_P1;PMS_P2;Temp;Humidity;BMP_temperature;BMP_pressure;BME280_temperature;BME280_humidity;BME280_pressure;Samples;Min_cycle;Max_cycle;Signal;HPM_P1;HPM_P2
2022/06/21 00:02:16;;;;;;;;;8.00;8.00;;;;;18.45;58.01;100519.81;5120672;27;45398;-83
2022/06/21 00:04:42;;;;;;;;;7.50;7.00;;;;;18.40;58.06;100492.41;5121406;27;45448;-83
2022/06/21 00:07:20;;;;;;;;;8.75;7.75;;;;;18.44;57.95;100494.84;5120833;27;45651;-82
2022/06/21 00:09:45;;;;;;;;;9.25;9.00;;;;;18.45;58.00;100493.91;5121469;27;46291;-83
2022/06/21 00:12:14;;;;;;;;;10.00;10.00;;;;;18.51;57.94;100506.09;5122255;27;45512;-83
2022/06/21 00:14:41;;;;;;;;;9.00;8.50;;;;;18.44;58.02;100507.38;5123884;27;45333;-83
2022/06/21 00:17:14;;;;;;;;;8.25;7.50;;;;;18.48;58.44;100516.97;5125126;27;44876;-84
2022/06/21 00:19:43;;;;;;;;;8.75;8.75;;;;;18.00;58.37;100443.75;5121810;27;45315;-84
2022/06/21 00:22:12;;;;;;;;;8.25;8.25;;;;;18.36;58.63;100507.78;5137960;27;44793;-81
2022/06/21 00:24:37;;;;;;;;;8.00;8.00;;;;;18.06;58.92;100456.78;5138029;27;45368;-82
2022/06/21 00:27:04;;;;;;;;;9.00;9.00;;;;;18.23;58.97;100491.50;5128107;27;45290;-83
2022/06/21 00:29:29;;;;;;;;;8.00;8.00;;;;;18.25;58.97;100494.97;5124708;27;45312;-83
2022/06/21 00:31:55;;;;;;;;;9.00;9.00;;;;;18.27;59.08;100502.94;5120312;27;45335;-82
2022/06/21 00:34:22;;;;;;;;;9.00;7.50;;;;;18.26;59.16;100501.19;5118777;27;45662;-83
2022/06/21 00:36:49;;;;;;;;;8.00;8.00;;;;;18.29;58.86;100501.91;5119165;27;45420;-83
2022/06/21 00:39:17;;;;;;;;;12.50;11.25;;;;;18.25;58.96;100499.44;5116689;27;47832;-83
2022/06/21 00:41:47;;;;;;;;;7.00;7.00;;;;;18.12;59.20;100483.19;5136049;27;45412;-82
2022/06/21 00:44:27;;;;;;;;;10.50;10.50;;;;;18.25;59.16;100515.50;5118993;27;45394;-83
2022/06/21 00:47:01;;;;;;;;;10.50;8.50;;;;;18.20;59.02;100513.06;5133614;27;45462;-83
2022/06/21 00:49:35;;;;;;;;;13.00;12.00;;;;;17.99;59.32;100460.72;5122623;27;46588;-83
2022/06/21 00:52:14;;;;;;;;;12.75;12.75;;;;;18.11;59.29;100505.53;5121616;27;45365;-81
2022/06/21 00:54:54;;;;;;;;;12.25;11.75;;;;;18.17;59.40;100517.72;5124663;27;45367;-83
2022/06/21 00:57:24;;;;;;;;;8.50;8.50;;;;;18.09;59.22;100521.66;5120011;27;45383;-83
2022/06/21 00:59:50;;;;;;;;;10.25;10.25;;;;;18.09;59.20;100521.66;5103610;27;45486;-81
2022/06/21 01:02:31;;;;;;;;;9.00;9.00;;;;;18.06;59.24;100512.94;5115442;27;45617;-83
2022/06/21 01:04:57;;;;;;;;;12.00;12.00;;;;;18.05;59.26;100508.53;5124632;27;45562;-83
2022/06/21 01:07:23;;;;;;;;;12.00;12.00;;;;;18.02;59.65;100524.72;5117752;27;45585;-82
2022/06/21 01:10:04;;;;;;;;;12.00;12.00;;;;;17.93;59.50;100518.94;5118723;27;46408;-83
2022/06/21 01:12:37;;;;;;;;;12.00;11.00;;;;;17.97;59.15;100519.63;5120055;27;45401;-83
2022/06/21 01:15:19;;;;;;;;;10.50;9.00;;;;;18.00;59.62;100523.97;5119331;27;45623;-83
2022/06/21 01:17:47;;;;;;;;;9.00;7.50;;;;;18.02;59.70;100522.06;5128992;27;45365;-82
2022/06/21 01:20:17;;;;;;;;;11.00;11.00;;;;;17.99;59.38;100525.78;5134420;27;45433;-82
2022/06/21 01:22:56;;;;;;;;;7.75;7.75;;;;;18.01;59.29;100520.34;5126655;27;45344;-81
2022/06/21 01:25:27;;;;;;;;;8.50;8.50;;;;;18.04;59.59;100530.88;5122192;27;45307;-83
2022/06/21 01:27:55;;;;;;;;;12.00;12.00;;;;;18.05;59.17;100533.47;5120083;27;45686;-82
2022/06/21 01:30:23;;;;;;;;;11.50;11.50;;;;;17.78;59.14;100476.94;5117664;27;45417;-83
2022/06/21 01:32:49;;;;;;;;;11.75;11.75;;;;;17.84;59.36;100481.94;5122006;27;45380;-83
2022/06/21 01:35:28;;;;;;;;;11.25;11.25;;;;;18.00;59.14;100516.78;5132986;27;44768;-82
2022/06/21 01:37:55;;;;;;;;;8.50;7.50;;;;;17.98;59.35;100518.69;5127046;27;44859;-83
2022/06/21 01:40:26;;;;;;;;;10.50;10.00;;;;;18.01;58.96;100528.38;5112600;27;47405;-79
2022/06/21 01:42:57;;;;;;;;;12.25;12.25;;;;;18.02;59.15;100536.31;5096084;27;45483;-78
2022/06/21 01:45:28;;;;;;;;;9.00;9.00;;;;;18.06;59.25;100542.34;5095059;27;45394;-78
2022/06/21 01:48:21;;;;;;;;;11.75;11.50;;;;;18.06;59.15;100553.06;5102384;27;45327;-79
2022/06/21 01:50:52;;;;;;;;;7.50;7.50;;;;;18.07;59.37;100565.50;5111881;27;47222;-78
2022/06/21 01:53:21;;;;;;;;;13.25;10.00;;;;;18.06;58.67;100580.66;5116418;27;45520;-78
2022/06/21 01:56:00;;;;;;;;;10.75;10.75;;;;;17.99;58.65;100591.75;5114322;27;45540;-78
2022/06/21 01:58:32;;;;;;;;;8.50;8.50;;;;;18.02;58.94;100608.50;5113748;27;45624;-77
2022/06/21 02:01:02;;;;;;;;;10.00;9.75;;;;;18.08;58.93;100628.72;5115040;27;45453;-79
2022/06/21 02:03:34;;;;;;;;;10.00;10.00;;;;;18.10;59.13;100624.16;5095339;27;45436;-78
2022/06/21 02:06:04;;;;;;;;;11.25;11.00;;;;;18.10;59.01;100613.47;5114033;27;45372;-78
2022/06/21 02:08:54;;;;;;;;;12.50;12.50;;;;;18.11;59.24;100609.84;5114071;27;45461;-78
2022/06/21 02:11:28;;;;;;;;;9.00;9.00;;;;;18.04;58.76;100603.94;5115346;27;45542;-79
2022/06/21 02:16:53;;;;;;;;;11.50;9.50;;;;;18.09;58.69;100603.72;5114804;27;45474;-78
2022/06/21 02:19:28;;;;;;;;;8.75;8.75;;;;;18.10;59.45;100592.06;5115893;27;45499;-78
2022/06/21 02:21:53;;;;;;;;;11.50;11.25;;;;;18.09;58.90;100583.16;5115326;27;45424;-78
2022/06/21 02:24:22;;;;;;;;;8.50;8.50;;;;;18.11;59.12;100569.72;5115301;27;45524;-78
2022/06/21 02:26:49;;;;;;;;;11.25;10.50;;;;;18.08;59.18;100544.03;5116795;27;45334;-84
2022/06/21 02:29:15;;;;;;;;;12.25;11.25;;;;;18.07;59.56;100546.78;5117433;27;45333;-83
2022/06/21 02:31:41;;;;;;;;;13.75;12.25;;;;;17.76;59.32;100487.69;5117813;27;46308;-83
2022/06/21 02:34:18;;;;;;;;;10.50;10.50;;;;;18.06;59.42;100531.66;5118716;27;45717;-83
2022/06/21 02:36:51;;;;;;;;;9.50;9.00;;;;;17.97;59.45;100527.66;5118687;27;45464;-82
2022/06/21 02:39:21;;;;;;;;;11.00;11.00;;;;;17.81;59.23;100494.59;5116199;27;45276;-83
2022/06/21 02:41:52;;;;;;;;;10.75;10.00;;;;;17.77;58.99;100486.72;5116300;27;45393;-82
2022/06/21 02:44:27;;;;;;;;;12.00;11.00;;;;;17.93;59.39;100515.38;5115007;27;45508;-83
2022/06/21 02:46:59;;;;;;;;;11.25;9.50;;;;;17.79;59.91;100483.97;5118347;27;45525;-82
2022/06/21 02:49:36;;;;;;;;;11.50;9.00;;;;;17.89;60.20;100500.47;5122837;27;45631;-83
2022/06/21 02:52:09;;;;;;;;;9.50;8.50;;;;;17.91;60.26;100514.59;5142139;27;45373;-84
2022/06/21 02:55:02;;;;;;;;;10.00;10.00;;;;;17.91;60.33;100512.78;5118659;27;45405;-77
2022/06/21 02:57:42;;;;;;;;;9.75;9.75;;;;;17.84;60.00;100515.81;5115741;27;45391;-79
2022/06/21 03:00:09;;;;;;;;;12.25;11.75;;;;;17.80;60.34;100504.44;5114801;27;45438;-78
2022/06/21 03:02:35;;;;;;;;;12.00;11.25;;;;;17.77;60.91;100493.91;5114051;27;45543;-78
2022/06/21 03:05:13;;;;;;;;;11.00;11.00;;;;;17.80;60.78;100500.91;5116793;27;45460;-79
2022/06/21 03:07:42;;;;;;;;;15.25;14.00;;;;;17.75;62.04;100490.44;5116117;27;45497;-80
2022/06/21 03:10:17;;;;;;;;;10.75;10.75;;;;;17.76;61.85;100492.16;5119601;27;45387;-80
2022/06/21 03:12:44;;;;;;;;;9.50;9.50;;;;;17.58;61.68;100462.78;5120170;27;47502;-78
2022/06/21 03:15:11;;;;;;;;;14.00;13.00;;;;;17.65;62.83;100481.16;5127237;27;45437;-79
2022/06/21 03:17:43;;;;;;;;;13.25;12.25;;;;;17.48;63.04;100461.50;5125849;27;45353;-78
2022/06/21 03:20:15;;;;;;;;;8.00;8.00;;;;;17.26;63.29;100442.16;5119522;27;45684;-78
2022/06/21 03:22:41;;;;;;;;;14.50;13.25;;;;;17.38;63.44;100454.88;5116093;27;47109;-78
2022/06/21 03:25:17;;;;;;;;;13.25;13.25;;;;;17.36;63.91;100443.44;5117367;27;45501;-79
2022/06/21 03:27:56;;;;;;;;;18.25;14.50;;;;;17.31;64.35;100435.66;5116221;27;45382;-79
2022/06/21 03:30:29;;;;;;;;;13.50;13.50;;;;;17.19;64.34;100417.56;5117774;27;45673;-78
2022/06/21 03:32:57;;;;;;;;;10.25;10.25;;;;;17.17;64.79;100414.97;5117374;27;46570;-78
2022/06/21 03:35:25;;;;;;;;;15.25;15.25;;;;;17.08;63.84;100410.09;5116937;27;45505;-77
2022/06/21 03:37:51;;;;;;;;;11.00;11.00;;;;;17.05;64.48;100402.25;5116952;27;45442;-79
2022/06/21 03:43:21;;;;;;;;;13.75;12.25;;;;;17.09;65.48;100392.25;5117274;27;45383;-79
2022/06/21 03:45:49;;;;;;;;;11.75;11.75;;;;;16.99;65.67;100381.16;5115939;27;45707;-78
2022/06/21 03:48:41;;;;;;;;;13.50;11.50;;;;;17.02;66.54;100371.22;5098815;27;45539;-80
2022/06/21 03:51:12;;;;;;;;;14.75;12.00;;;;;17.00;65.93;100369.56;5117655;27;45342;-78
2022/06/21 03:54:18;;;;;;;;;14.25;14.25;;;;;17.00;66.03;100362.41;5117599;27;45492;-78
2022/06/21 03:57:00;;;;;;;;;16.00;12.75;;;;;16.66;66.32;100308.00;5106759;27;45405;-82
2022/06/21 03:59:38;;;;;;;;;13.25;13.00;;;;;16.81;66.63;100353.56;5119638;27;45424;-84
2022/06/21 04:02:25;;;;;;;;;13.25;12.00;;;;;16.63;66.83;100334.00;5118089;27;45535;-84
2022/06/21 04:04:54;;;;;;;;;15.75;15.00;;;;;16.75;67.19;100348.53;5105017;27;45712;-84
2022/06/21 04:07:31;;;;;;;;;15.25;13.00;;;;;16.77;67.17;100343.97;5118772;27;45471;-83
2022/06/21 04:10:22;;;;;;;;;19.00;15.25;;;;;16.73;68.08;100335.25;5121865;27;45379;-83
2022/06/21 04:12:59;;;;;;;;;14.00;14.00;;;;;16.73;68.66;100340.59;5128323;27;45417;-82
2022/06/21 04:15:52;;;;;;;;;11.50;11.50;;;;;16.67;70.44;100335.56;5119500;27;45528;-82
2022/06/21 04:18:52;;;;;;;;;13.75;12.75;;;;;16.62;70.26;100321.59;5123567;27;45528;-83
2022/06/21 04:21:46;;;;;;;;;14.50;14.50;;;;;16.61;69.54;100314.50;5119320;27;44768;-83
2022/06/21 04:24:15;;;;;;;;;13.50;12.75;;;;;16.56;70.97;100311.22;5115043;27;45438;-83
2022/06/21 04:26:50;;;;;;;;;14.50;14.50;;;;;16.50;71.50;100307.91;5100128;27;46036;-81
2022/06/21 04:29:22;;;;;;;;;14.00;14.00;;;;;16.15;71.66;100254.50;5116934;27;45493;-82
2022/06/21 04:32:17;;;;;;;;;15.75;14.50;;;;;16.42;70.43;100309.22;5117878;27;45352;-83
2022/06/21 04:34:51;;;;;;;;;16.50;16.50;;;;;16.37;70.73;100296.13;5095653;27;45540;-83
2022/06/21 04:37:22;;;;;;;;;14.50;13.75;;;;;16.40;70.74;100289.75;5095705;27;46407;-84
2022/06/21 04:39:54;;;;;;;;;15.75;14.50;;;;;16.14;69.91;100258.09;5078553;27;45466;-83
2022/06/21 04:42:35;;;;;;;;;13.25;12.25;;;;;16.25;70.42;100280.72;5079393;27;45402;-82
2022/06/21 04:45:10;;;;;;;;;11.00;11.00;;;;;16.22;70.75;100291.53;5094506;27;45522;-83
2022/06/21 04:47:47;;;;;;;;;14.00;14.00;;;;;16.23;71.90;100288.78;5077602;27;45521;-82
2022/06/21 04:50:30;;;;;;;;;15.25;11.75;;;;;16.27;72.27;100295.69;5094107;27;45552;-82
2022/06/21 04:53:02;;;;;;;;;17.50;15.00;;;;;16.14;71.95;100295.41;5094544;27;45555;-82
2022/06/21 04:55:38;;;;;;;;;11.75;11.75;;;;;16.02;72.67;100287.13;5095757;27;45542;-84
2022/06/21 04:58:04;;;;;;;;;14.50;14.50;;;;;15.99;73.04;100280.16;5093858;27;46137;-83
2022/06/21 05:00:29;;;;;;;;;16.75;13.50;;;;;15.85;73.00;100269.25;5095400;27;45473;-84
2022/06/21 05:02:59;;;;;;;;;13.75;12.75;;;;;15.96;72.59;100307.81;5094462;27;45398;-82
2022/06/21 05:05:29;;;;;;;;;17.00;15.50;;;;;15.89;72.18;100306.34;5077870;27;45647;-83
2022/06/21 05:08:02;;;;;;;;;12.25;12.00;;;;;15.69;71.41;100271.75;5077110;27;48101;-81
2022/06/21 05:10:35;;;;;;;;;12.25;12.25;;;;;16.03;71.76;100326.16;5094890;27;45532;-82
2022/06/21 05:13:07;;;;;;;;;12.25;12.25;;;;;15.99;71.80;100318.31;5118920;27;45373;-83
2022/06/21 05:15:36;;;;;;;;;15.00;13.50;;;;;15.92;71.17;100316.88;5121210;27;45254;-78
2022/06/21 05:18:12;;;;;;;;;13.50;13.50;;;;;15.99;72.04;100328.97;5132925;27;45182;-82
2022/06/21 05:20:46;;;;;;;;;18.25;15.50;;;;;16.07;72.41;100341.94;5119646;27;45374;-84
2022/06/21 05:23:12;;;;;;;;;13.50;13.50;;;;;16.04;72.40;100333.25;5119600;27;45492;-84
2022/06/21 05:25:42;;;;;;;;;19.00;15.25;;;;;16.25;70.88;100352.69;5117761;27;45434;-80
2022/06/21 05:28:32;;;;;;;;;16.00;14.75;;;;;16.40;70.89;100354.63;5117618;27;45550;-83
2022/06/21 05:31:11;;;;;;;;;14.50;14.50;;;;;16.51;69.70;100344.31;5122406;27;45524;-83
2022/06/21 05:33:43;;;;;;;;;15.00;15.00;;;;;17.05;70.34;100330.16;5116819;27;45584;-83
2022/06/21 05:36:13;;;;;;;;;16.00;15.00;;;;;17.45;66.98;100338.78;5131970;27;45643;-77
2022/06/21 05:38:58;;;;;;;;;18.50;15.75;;;;;17.51;67.69;100338.44;5115568;27;45402;-78
2022/06/21 05:41:33;;;;;;;;;12.50;12.50;;;;;17.57;66.14;100343.47;5115797;27;45351;-80
2022/06/21 05:44:43;;;;;;;;;15.25;15.25;;;;;17.82;64.42;100347.50;5117314;27;45322;-83
2022/06/21 05:47:18;;;;;;;;;10.25;9.25;;;;;17.73;64.22;100318.59;5092174;27;45758;-80
2022/06/21 05:49:44;;;;;;;;;15.00;12.75;;;;;17.92;64.75;100338.06;5095772;27;45399;-82
2022/06/21 05:52:16;;;;;;;;;12.75;12.75;;;;;18.10;63.97;100335.34;5093403;27;45480;-84
2022/06/21 05:54:46;;;;;;;;;14.00;10.25;;;;;18.14;64.13;100304.78;5094468;27;45598;-84
2022/06/21 05:57:17;;;;;;;;;11.00;10.75;;;;;18.27;63.37;100313.88;5094006;27;45731;-84
2022/06/21 05:59:42;;;;;;;;;14.25;13.00;;;;;18.17;62.46;100288.56;5081384;27;45304;-83
2022/06/21 06:02:17;;;;;;;;;16.00;12.00;;;;;18.31;62.47;100294.97;5082022;27;45535;-79
2022/06/21 06:05:06;;;;;;;;;13.00;12.25;;;;;18.59;62.44;100329.91;5093328;27;45502;-81
2022/06/21 06:07:36;;;;;;;;;12.75;12.00;;;;;18.54;61.73;100334.66;5093771;27;45371;-83
2022/06/21 06:10:05;;;;;;;;;11.75;11.75;;;;;18.38;62.09;100291.00;5077301;27;45517;-80
2022/06/21 06:12:36;;;;;;;;;13.75;13.00;;;;;18.94;60.97;100324.34;5092075;27;45536;-76
2022/06/21 06:15:11;;;;;;;;;9.00;9.00;;;;;20.00;59.33;100325.09;5092015;27;45593;-79
2022/06/21 06:17:36;;;;;;;;;12.25;11.50;;;;;21.00;56.67;100322.22;5091970;27;45503;-81
2022/06/21 06:20:32;;;;;;;;;14.00;14.00;;;;;22.16;54.13;100317.75;5095276;27;45488;-79
2022/06/21 06:23:06;;;;;;;;;12.75;12.25;;;;;22.98;50.79;100314.44;5114696;27;45457;-80
2022/06/21 06:25:45;;;;;;;;;11.50;11.50;;;;;22.57;49.54;100286.09;5120354;27;45253;-79
2022/06/21 06:28:32;;;;;;;;;12.25;12.25;;;;;22.71;49.00;100305.63;5116351;27;45621;-79
2022/06/21 06:31:23;;;;;;;;;10.00;10.00;;;;;22.64;50.62;100317.00;5114927;27;45436;-80
2022/06/21 06:34:01;;;;;;;;;14.00;13.00;;;;;23.09;48.60;100322.56;5100771;27;45399;-80
2022/06/21 06:36:31;;;;;;;;;13.50;13.25;;;;;23.44;47.53;100318.97;5116018;27;45444;-79
2022/06/21 06:38:58;;;;;;;;;11.50;11.50;;;;;24.13;46.75;100329.72;5115521;27;45509;-79
2022/06/21 06:41:44;;;;;;;;;14.25;12.50;;;;;24.53;45.56;100312.09;5115693;27;46413;-79
2022/06/21 06:44:14;;;;;;;;;11.00;10.50;;;;;25.00;44.00;100328.88;5123155;27;45441;-79
2022/06/21 06:46:45;;;;;;;;;10.50;10.50;;;;;25.39;43.12;100338.31;5119973;27;45523;-79
2022/06/21 06:49:29;;;;;;;;;9.75;9.75;;;;;25.48;43.93;100342.94;5126736;27;45396;-78
2022/06/21 06:52:14;;;;;;;;;10.50;10.50;;;;;25.51;43.79;100335.41;5118666;27;46291;-79
2022/06/21 06:54:54;;;;;;;;;8.75;7.75;;;;;25.78;42.70;100336.72;5118997;27;45506;-78
2022/06/21 06:57:47;;;;;;;;;12.50;12.50;;;;;26.18;41.60;100308.81;5115205;27;45554;-84
2022/06/21 07:00:20;;;;;;;;;13.00;12.00;;;;;26.64;41.48;100325.44;5102978;27;45449;-83
2022/06/21 07:02:56;;;;;;;;;9.50;8.00;;;;;26.94;40.36;100332.63;5119181;27;45526;-80
2022/06/21 07:05:31;;;;;;;;;12.50;11.25;;;;;26.84;40.20;100341.75;5119501;27;45390;-80
2022/06/21 07:08:20;;;;;;;;;7.50;7.50;;;;;26.98;40.68;100340.47;5119041;27;45510;-79
2022/06/21 07:10:52;;;;;;;;;10.00;9.00;;;;;26.93;39.86;100336.31;5120656;27;45400;-79
2022/06/21 07:13:18;;;;;;;;;11.50;11.50;;;;;26.95;40.05;100363.28;5135945;27;46062;-79
2022/06/21 07:15:47;;;;;;;;;11.25;10.75;;;;;26.70;40.25;100364.72;5130488;27;45239;-78
2022/06/21 07:18:27;;;;;;;;;11.00;11.00;;;;;26.41;41.45;100351.94;5121008;27;45437;-83
2022/06/21 07:20:52;;;;;;;;;11.75;9.50;;;;;25.87;41.49;100359.38;5115692;27;45416;-82
2022/06/21 07:23:21;;;;;;;;;12.25;11.00;;;;;25.28;42.63;100345.47;5134670;27;47577;-80
2022/06/21 07:25:53;;;;;;;;;10.50;10.50;;;;;25.21;43.84;100376.72;5099065;27;45435;-80
2022/06/21 07:28:42;;;;;;;;;12.50;10.25;;;;;25.75;42.88;100368.56;5097810;27;45367;-78
2022/06/21 07:31:15;;;;;;;;;10.50;10.50;;;;;26.61;42.11;100366.38;5095847;27;45528;-78
2022/06/21 07:34:06;;;;;;;;;13.00;13.00;;;;;26.75;40.35;100359.72;5098007;27;45340;-84
2022/06/21 07:36:41;;;;;;;;;9.75;9.75;;;;;27.12;40.43;100378.00;5100510;27;45549;-85
2022/06/21 07:39:19;;;;;;;;;10.50;10.50;;;;;27.91;39.88;100378.78;5100045;27;45461;-84
2022/06/21 07:41:55;;;;;;;;;11.25;10.00;;;;;28.07;39.00;100362.72;5099627;27;45253;-84
2022/06/21 07:44:30;;;;;;;;;12.50;10.25;;;;;28.85;38.83;100375.91;5097763;27;48171;-83
2022/06/21 07:47:09;;;;;;;;;8.25;8.25;;;;;29.06;36.55;100380.16;5091642;27;45420;-84
2022/06/21 07:49:38;;;;;;;;;10.00;10.00;;;;;28.95;37.15;100364.09;5078817;27;45237;-82
2022/06/21 07:52:16;;;;;;;;;11.50;11.50;;;;;29.06;36.85;100361.13;5096391;27;45196;-82
2022/06/21 07:54:51;;;;;;;;;8.75;8.75;;;;;29.17;38.03;100379.09;5097322;27;48580;-77
2022/06/21 07:57:21;;;;;;;;;11.75;11.75;;;;;29.15;37.60;100381.97;5098208;27;45437;-78
2022/06/21 07:59:52;;;;;;;;;13.00;13.00;;;;;28.97;37.79;100370.22;5097360;27;45473;-79
2022/06/21 08:08:17;;;;;;;;;11.00;11.00;;;;;27.79;39.11;100338.22;5082496;28;45470;-81
2022/06/21 08:10:52;;;;;;;;;11.00;11.00;;;;;27.12;40.96;100368.00;5087419;27;45284;-77
2022/06/21 08:13:17;;;;;;;;;15.25;13.00;;;;;26.91;41.51;100384.41;5106319;27;45281;-81
2022/06/21 08:15:52;;;;;;;;;11.75;10.25;;;;;26.91;41.54;100375.44;5125310;27;45741;-80
2022/06/21 08:18:29;;;;;;;;;9.00;9.00;;;;;26.98;42.35;100379.31;5100441;27;45383;-82
2022/06/21 08:21:05;;;;;;;;;12.00;11.00;;;;;26.82;42.14;100370.88;5089839;27;45556;-77
2022/06/21 08:24:14;;;;;;;;;12.00;10.75;;;;;26.68;41.77;100375.69;5088536;27;45627;-80
2022/06/21 08:26:48;;;;;;;;;14.25;12.50;;;;;26.55;42.82;100377.75;5065681;28;45980;-81
2022/06/21 08:29:24;;;;;;;;;12.50;12.50;;;;;26.62;42.75;100397.00;5071447;28;45473;-77
2022/06/21 08:31:58;;;;;;;;;12.00;12.00;;;;;26.10;43.95;100394.41;5069523;28;45693;-76
2022/06/21 08:34:27;;;;;;;;;11.75;11.00;;;;;26.24;45.24;100399.47;5055367;28;45594;-79
2022/06/21 08:36:56;;;;;;;;;13.50;11.75;;;;;25.83;44.74;100395.84;5044569;28;48328;-78
2022/06/21 08:39:54;;;;;;;;;13.00;11.50;;;;;25.56;45.88;100408.06;5065728;28;45450;-76
2022/06/21 08:43:07;;;;;;;;;15.50;15.50;;;;;25.45;45.70;100413.53;5070482;28;45487;-81
2022/06/21 08:45:41;;;;;;;;;13.50;13.50;;;;;25.38;46.37;100415.03;4996255;28;45451;-80
2022/06/21 08:48:32;;;;;;;;;11.00;11.00;;;;;25.36;46.66;100410.59;5000013;28;45590;-80
2022/06/21 08:51:03;;;;;;;;;14.75;14.00;;;;;25.43;47.28;100407.38;5004356;28;45441;-78
2022/06/21 08:53:39;;;;;;;;;11.50;11.50;;;;;25.35;47.30;100405.34;5003943;28;45566;-78
2022/06/21 08:56:15;;;;;;;;;15.50;13.50;;;;;25.59;46.53;100394.25;4990724;28;45417;-77
2022/06/21 08:59:11;;;;;;;;;20.50;17.25;;;;;25.42;46.21;100371.38;5002110;28;46293;-78
2022/06/21 09:02:04;;;;;;;;;14.25;13.75;;;;;25.74;46.47;100397.50;5027399;28;45426;-82
2022/06/21 09:04:38;;;;;;;;;15.00;14.75;;;;;26.11;45.30;100382.59;5030878;28;45329;-83
2022/06/21 09:07:27;;;;;;;;;11.75;10.75;;;;;26.05;45.85;100389.41;5035052;28;45437;-78
2022/06/21 09:10:28;;;;;;;;;15.50;14.25;;;;;25.97;46.08;100398.19;5017509;28;46714;-82
2022/06/21 09:13:24;;;;;;;;;18.00;17.50;;;;;25.99;46.18;100396.22;5041348;28;45345;-82
2022/06/21 09:16:18;;;;;;;;;15.00;12.75;;;;;26.72;44.64;100382.56;5022560;28;45582;-81
2022/06/21 09:19:13;;;;;;;;;11.75;11.25;;;;;27.30;44.51;100381.72;5008819;28;45648;-83
2022/06/21 09:21:49;;;;;;;;;11.00;10.75;;;;;27.69;43.82;100379.97;5046778;27;47433;-82
2022/06/21 09:24:33;;;;;;;;;8.50;8.50;;;;;27.81;43.17;100385.06;5083587;27;45444;-78
2022/06/21 09:27:07;;;;;;;;;12.50;12.50;;;;;27.97;42.85;100378.22;5088034;27;45421;-83
2022/06/21 09:29:43;;;;;;;;;13.00;13.00;;;;;28.60;43.00;100382.06;5095350;27;45503;-83
2022/06/21 09:32:24;;;;;;;;;12.75;12.75;;;;;29.19;40.73;100368.91;5098506;27;46665;-81
2022/06/21 09:34:59;;;;;;;;;15.25;15.00;;;;;29.71;39.87;100379.00;5090591;27;45394;-78
2022/06/21 09:37:40;;;;;;;;;15.50;15.50;;;;;30.07;38.35;100378.91;5089676;27;45495;-82
2022/06/21 09:40:06;;;;;;;;;13.75;13.75;;;;;30.43;37.79;100379.63;5080380;27;45402;-82
2022/06/21 09:42:47;;;;;;;;;11.00;11.00;;;;;30.55;38.17;100344.72;5076909;27;47031;-79
2022/06/21 09:45:22;;;;;;;;;14.00;14.00;;;;;31.34;38.31;100367.00;5074671;27;45497;-77
2022/06/21 09:48:02;;;;;;;;;14.00;13.75;;;;;31.87;36.51;100352.94;5091111;27;45522;-78
2022/06/21 09:50:57;;;;;;;;;10.50;10.50;;;;;32.55;35.57;100359.72;5081432;27;45607;-78
2022/06/21 09:53:44;;;;;;;;;12.50;12.25;;;;;33.00;34.46;100351.72;5094202;27;46563;-77
2022/06/21 09:56:33;;;;;;;;;12.25;10.50;;;;;33.32;34.87;100357.16;5088606;27;45536;-78
2022/06/21 09:59:25;;;;;;;;;12.00;9.25;;;;;33.76;34.05;100350.94;5084377;27;45520;-77
2022/06/21 10:02:05;;;;;;;;;13.50;13.50;;;;;33.97;32.35;100347.44;5096955;27;45628;-83
2022/06/21 10:05:06;;;;;;;;;15.50;14.75;;;;;34.07;32.35;100344.38;5086153;27;45425;-83
2022/06/21 10:08:05;;;;;;;;;14.00;13.00;;;;;34.31;32.24;100332.28;5091363;27;45477;-77
2022/06/21 10:10:40;;;;;;;;;15.75;14.75;;;;;34.47;32.09;100332.06;5089867;27;45379;-83
2022/06/21 10:13:40;;;;;;;;;8.75;8.75;;;;;34.62;32.16;100333.91;5083692;27;45523;-77
2022/06/21 10:16:31;;;;;;;;;18.00;17.25;;;;;34.15;32.56;100334.19;5052182;28;46446;-78
2022/06/21 10:19:23;;;;;;;;;17.25;17.25;;;;;34.06;32.48;100323.50;5070955;28;45545;-78
2022/06/21 10:21:58;;;;;;;;;15.50;14.50;;;;;34.09;30.96;100317.63;5065421;28;45586;-83
2022/06/21 10:24:48;;;;;;;;;16.75;16.75;;;;;34.23;32.34;100321.41;5063486;27;45610;-77
2022/06/21 10:27:16;;;;;;;;;15.00;13.75;;;;;34.12;33.02;100309.06;5052210;28;45491;-83
2022/06/21 10:30:05;;;;;;;;;15.75;14.75;;;;;33.54;33.09;100274.09;5060961;27;45404;-83
2022/06/21 10:32:42;;;;;;;;;18.75;17.50;;;;;33.57;32.95;100313.94;5066224;28;45489;-78
2022/06/21 10:35:33;;;;;;;;;16.75;16.00;;;;;33.59;32.42;100312.72;5062488;28;45629;-77
2022/06/21 10:38:14;;;;;;;;;14.75;14.75;;;;;33.76;32.52;100302.44;5064491;28;45629;-83
2022/06/21 10:40:54;;;;;;;;;15.00;15.00;;;;;33.88;33.15;100296.50;5063923;28;45519;-84
2022/06/21 10:43:52;;;;;;;;;14.50;14.50;;;;;33.90;32.72;100284.31;5047513;28;45318;-79
2022/06/21 10:46:26;;;;;;;;;14.75;14.75;;;;;34.14;32.20;100287.78;5028424;28;45667;-78
2022/06/21 10:49:00;;;;;;;;;14.00;13.75;;;;;33.89;31.47;100301.81;5070060;27;45528;-77
2022/06/21 10:51:56;;;;;;;;;16.00;16.00;;;;;33.88;32.52;100289.13;5062548;27;45546;-78
2022/06/21 10:54:59;;;;;;;;;14.25;14.00;;;;;34.02;31.65;100289.31;5092030;27;45413;-78
2022/06/21 10:57:24;;;;;;;;;13.25;13.25;;;;;34.17;31.75;100277.25;5087206;27;45387;-77
2022/06/21 11:02:56;;;;;;;;;15.75;15.75;;;;;34.67;31.14;100277.41;5084443;27;45459;-83
2022/06/21 11:05:42;;;;;;;;;17.50;15.75;;;;;34.80;31.59;100279.50;5113555;27;45383;-77
2022/06/21 11:08:30;;;;;;;;;15.75;15.75;;;;;35.00;31.45;100276.03;5099184;27;45535;-79
2022/06/21 11:11:06;;;;;;;;;12.75;12.75;;;;;34.78;29.84;100270.59;5104052;27;45391;-77
2022/06/21 11:13:38;;;;;;;;;14.50;13.25;;;;;34.37;31.18;100275.84;5081857;27;45343;-78
2022/06/21 11:16:33;;;;;;;;;12.25;12.25;;;;;33.60;32.55;100280.69;5081479;27;45753;-77
2022/06/21 11:19:13;;;;;;;;;15.25;14.00;;;;;32.86;33.47;100282.25;5060566;28;45539;-78
2022/06/21 11:22:02;;;;;;;;;18.25;17.25;;;;;33.10;33.25;100275.72;5054797;28;47638;-77
2022/06/21 11:24:37;;;;;;;;;16.75;16.75;;;;;33.08;33.31;100279.66;5064948;28;45422;-78
2022/06/21 11:27:20;;;;;;;;;21.00;20.00;;;;;33.16;33.29;100276.00;5058577;28;45482;-78
2022/06/21 11:29:51;;;;;;;;;18.25;18.25;;;;;33.32;34.01;100278.59;5066944;27;45581;-77
2022/06/21 11:32:36;;;;;;;;;15.50;15.50;;;;;33.55;32.93;100269.47;5061254;28;46934;-77
2022/06/21 11:35:10;;;;;;;;;18.00;17.00;;;;;33.59;32.82;100263.41;5052296;28;45441;-79
2022/06/21 11:37:45;;;;;;;;;17.50;15.75;;;;;33.59;32.50;100268.06;5068430;28;45438;-78
2022/06/21 11:40:34;;;;;;;;;11.25;11.25;;;;;33.22;33.46;100272.53;5059969;28;45533;-79
2022/06/21 11:43:03;;;;;;;;;19.75;18.25;;;;;33.03;32.50;100265.69;5066546;28;45429;-77
2022/06/21 11:45:40;;;;;;;;;15.50;15.50;;;;;33.06;33.83;100268.91;5062280;28;45537;-78
2022/06/21 11:48:15;;;;;;;;;19.00;18.75;;;;;33.17;31.84;100259.38;5060658;28;45441;-78
2022/06/21 11:50:55;;;;;;;;;15.25;15.00;;;;;32.86;32.36;100273.19;5064012;28;45587;-79
2022/06/21 11:53:46;;;;;;;;;17.00;17.00;;;;;32.68;32.33;100277.09;5050888;28;48835;-78
2022/06/21 11:56:30;;;;;;;;;11.00;10.75;;;;;32.61;32.81;100269.75;5075580;27;45470;-78
2022/06/21 11:59:05;;;;;;;;;11.00;11.00;;;;;32.50;33.69;100277.34;5096991;27;45520;-78
2022/06/21 12:02:01;;;;;;;;;12.75;12.75;;;;;32.73;34.59;100271.06;5086726;27;45579;-78
2022/06/21 12:04:50;;;;;;;;;16.75;16.75;;;;;32.45;33.62;100265.25;5074897;27;46215;-82
2022/06/21 12:07:33;;;;;;;;;9.00;8.00;;;;;31.87;34.26;100266.41;5098596;27;45386;-79
2022/06/21 12:10:13;;;;;;;;;10.00;9.50;;;;;31.55;35.19;100259.16;5091879;27;45320;-80
2022/06/21 12:12:47;;;;;;;;;17.50;17.25;;;;;31.39;35.14;100267.38;5089319;27;45505;-83